sensor_id;sensor_type;location;lat;lon;timestamp;pressure;altitude;pressure_sealevel;temperature;humidity
16431;BME280;8325;49.284;7.238;2022-12-07T05:01:10;98875.34;;;2.94;90.40
16431;BME280;8325;49.284;7.238;2022-12-07T05:05:21;98876.88;;;2.97;90.53
16431;BME280;8325;49.284;7.238;2022-12-07T05:09:33;98886.25;;;2.98;90.23
16431;BME280;8325;49.284;7.238;2022-12-07T05:13:44;98886.94;;;2.89;90.12
16431;BME280;8325;49.284;7.238;2022-12-07T05:17:56;98882.13;;;2.95;90.25
16431;BME280;8325;49.284;7.238;2022-12-07T05:22:07;98880.50;;;2.94;90.31
16431;BME280;8325;49.284;7.238;2022-12-07T05:26:19;98887.28;;;2.95;90.72
16431;BME280;8325;49.284;7.238;2022-12-07T05:30:30;98869.94;;;2.97;90.49
16431;BME280;8325;49.284;7.238;2022-12-07T05:34:42;98879.56;;;2.95;90.58
16431;BME280;8325;49.284;7.238;2022-12-07T05:38:53;98880.28;;;2.97;90.47
16431;BME280;8325;49.284;7.238;2022-12-07T05:43:05;98871.34;;;3.02;90.54
16431;BME280;8325;49.284;7.238;2022-12-07T05:47:16;98877.22;;;3.04;90.19
16431;BME280;8325;49.284;7.238;2022-12-07T05:51:28;98878.97;;;3.03;90.42
16431;BME280;8325;49.284;7.238;2022-12-07T05:55:40;98882.50;;;3.02;90.53
16431;BME280;8325;49.284;7.238;2022-12-07T05:59:51;98879.44;;;2.97;90.47
16431;BME280;8325;49.284;7.238;2022-12-07T06:04:03;98874.88;;;3.00;91.35
16431;BME280;8325;49.284;7.238;2022-12-07T06:08:14;98873.00;;;3.03;90.66
16431;BME280;8325;49.284;7.238;2022-12-07T06:12:26;98874.63;;;3.04;90.64
16431;BME280;8325;49.284;7.238;2022-12-07T06:16:49;98870.53;;;3.01;90.99
16431;BME280;8325;49.284;7.238;2022-12-07T06:21:01;98874.78;;;3.02;90.64
16431;BME280;8325;49.284;7.238;2022-12-07T06:25:13;98882.28;;;3.05;91.10
16431;BME280;8325;49.284;7.238;2022-12-07T06:29:24;98879.56;;;3.07;90.42
16431;BME280;8325;49.284;7.238;2022-12-07T06:33:36;98877.56;;;3.10;90.34
16431;BME280;8325;49.284;7.238;2022-12-07T06:37:47;98876.88;;;3.08;90.47
16431;BME280;8325;49.284;7.238;2022-12-07T06:41:59;98880.50;;;3.06;90.76
16431;BME280;8325;49.284;7.238;2022-12-07T06:46:10;98884.72;;;3.07;91.07
16431;BME280;8325;49.284;7.238;2022-12-07T06:50:22;98879.56;;;3.07;91.31
16431;BME280;8325;49.284;7.238;2022-12-07T06:54:33;98874.53;;;3.05;90.94
16431;BME280;8325;49.284;7.238;2022-12-07T06:58:45;98878.63;;;3.08;91.61
16431;BME280;8325;49.284;7.238;2022-12-07T07:02:56;98876.50;;;3.13;91.06
16431;BME280;8325;49.284;7.238;2022-12-07T07:07:08;98879.09;;;3.13;91.24
16431;BME280;8325;49.284;7.238;2022-12-07T07:11:19;98883.91;;;3.17;90.82
16431;BME280;8325;49.284;7.238;2022-12-07T07:15:31;98887.78;;;3.12;91.40
16431;BME280;8325;49.284;7.238;2022-12-07T07:19:43;98891.91;;;3.14;91.60
16431;BME280;8325;49.284;7.238;2022-12-07T07:23:54;98886.13;;;3.11;91.87
16431;BME280;8325;49.284;7.238;2022-12-07T07:28:07;98888.31;;;3.38;93.58
16431;BME280;8325;49.284;7.238;2022-12-07T07:32:19;98894.53;;;3.35;91.18
16431;BME280;8325;49.284;7.238;2022-12-07T07:36:30;98902.75;;;3.29;91.88
16431;BME280;8325;49.284;7.238;2022-12-07T07:40:42;98901.59;;;3.33;91.86
16431;BME280;8325;49.284;7.238;2022-12-07T07:44:53;98898.06;;;3.34;91.83
16431;BME280;8325;49.284;7.238;2022-12-07T07:49:05;98908.16;;;3.37;91.98
16431;BME280;8325;49.284;7.238;2022-12-07T07:53:16;98903.72;;;3.39;91.32
16431;BME280;8325;49.284;7.238;2022-12-07T07:57:28;98903.25;;;3.45;91.50
16431;BME280;8325;49.284;7.238;2022-12-07T08:01:39;98914.00;;;3.51;91.46
16431;BME280;8325;49.284;7.238;2022-12-07T08:05:51;98916.97;;;3.57;91.05
16431;BME280;8325;49.284;7.238;2022-12-07T08:10:03;98927.41;;;3.56;91.38
16431;BME280;8325;49.284;7.238;2022-12-07T08:14:15;98920.84;;;3.52;91.39
16431;BME280;8325;49.284;7.238;2022-12-07T08:18:26;98925.53;;;3.58;91.78
16431;BME280;8325;49.284;7.238;2022-12-07T08:22:38;98923.75;;;3.58;91.63
16431;BME280;8325;49.284;7.238;2022-12-07T08:26:49;98926.19;;;3.60;91.63
16431;BME280;8325;49.284;7.238;2022-12-07T08:31:07;98925.47;;;3.69;91.36
16431;BME280;8325;49.284;7.238;2022-12-07T08:35:19;98924.41;;;3.72;91.63
16431;BME280;8325;49.284;7.238;2022-12-07T08:39:31;98932.75;;;3.75;91.11
16431;BME280;8325;49.284;7.238;2022-12-07T08:43:43;98938.13;;;3.83;90.75
16431;BME280;8325;49.284;7.238;2022-12-07T08:48:03;98940.72;;;3.83;91.20
16431;BME280;8325;49.284;7.238;2022-12-07T08:52:17;98945.19;;;3.81;91.05
16431;BME280;8325;49.284;7.238;2022-12-07T08:56:29;98934.84;;;3.81;91.31
16431;BME280;8325;49.284;7.238;2022-12-07T09:00:41;98937.78;;;3.88;91.17
16431;BME280;8325;49.284;7.238;2022-12-07T09:04:52;98935.56;;;3.83;91.48
16431;BME280;8325;49.284;7.238;2022-12-07T09:09:04;98931.34;;;3.82;91.54
16431;BME280;8325;49.284;7.238;2022-12-07T09:13:15;98942.13;;;3.87;91.71
16431;BME280;8325;49.284;7.238;2022-12-07T09:17:27;98933.69;;;3.85;91.99
16431;BME280;8325;49.284;7.238;2022-12-07T09:21:38;98933.44;;;3.88;92.30
16431;BME280;8325;49.284;7.238;2022-12-07T09:25:50;98939.41;;;3.89;92.05
16431;BME280;8325;49.284;7.238;2022-12-07T09:30:02;98934.81;;;3.92;92.21
16431;BME280;8325;49.284;7.238;2022-12-07T09:34:14;98936.47;;;3.93;92.04
16431;BME280;8325;49.284;7.238;2022-12-07T09:38:26;98934.59;;;3.96;91.98
16431;BME280;8325;49.284;7.238;2022-12-07T09:42:43;98932.09;;;3.94;92.04
16431;BME280;8325;49.284;7.238;2022-12-07T09:46:56;98923.03;;;4.00;91.72
16431;BME280;8325;49.284;7.238;2022-12-07T09:51:18;98921.28;;;4.00;91.76
16431;BME280;8325;49.284;7.238;2022-12-07T09:55:36;98908.09;;;4.03;91.15
16431;BME280;8325;49.284;7.238;2022-12-07T09:59:47;98907.84;;;4.06;91.30
16431;BME280;8325;49.284;7.238;2022-12-07T10:04:16;98905.97;;;4.08;91.50
16431;BME280;8325;49.284;7.238;2022-12-07T10:08:29;98900.63;;;4.21;91.30
16431;BME280;8325;49.284;7.238;2022-12-07T10:13:02;98900.38;;;4.24;91.16
16431;BME280;8325;49.284;7.238;2022-12-07T10:17:32;98894.28;;;4.25;91.22
16431;BME280;8325;49.284;7.238;2022-12-07T10:22:15;98903.03;;;4.34;90.19
16431;BME280;8325;49.284;7.238;2022-12-07T10:26:33;98903.03;;;4.34;90.64
16431;BME280;8325;49.284;7.238;2022-12-07T10:30:55;98889.16;;;4.35;90.42
16431;BME280;8325;49.284;7.238;2022-12-07T10:35:28;98881.03;;;4.39;90.39
16431;BME280;8325;49.284;7.238;2022-12-07T10:39:55;98881.84;;;4.40;89.57
16431;BME280;8325;49.284;7.238;2022-12-07T10:44:21;98879.69;;;4.45;90.12
16431;BME280;8325;49.284;7.238;2022-12-07T10:49:14;98875.78;;;4.51;89.54
16431;BME280;8325;49.284;7.238;2022-12-07T10:53:48;98866.97;;;4.53;89.45
16431;BME280;8325;49.284;7.238;2022-12-07T11:02:54;98860.72;;;4.56;88.87
16431;BME280;8325;49.284;7.238;2022-12-07T11:11:43;98842.19;;;4.60;88.36
16431;BME280;8325;49.284;7.238;2022-12-07T11:25:17;98837.84;;;4.61;88.29
16431;BME280;8325;49.284;7.238;2022-12-07T11:34:18;98832.13;;;4.57;88.31
16431;BME280;8325;49.284;7.238;2022-12-07T11:43:32;98819.09;;;4.69;88.20
16431;BME280;8325;49.284;7.238;2022-12-07T11:47:48;98814.47;;;4.72;86.84
16431;BME280;8325;49.284;7.238;2022-12-07T11:52:06;98822.41;;;4.80;87.75
16431;BME280;8325;49.284;7.238;2022-12-07T11:56:26;98809.22;;;4.83;84.75
16431;BME280;8325;49.284;7.238;2022-12-07T12:00:38;98808.53;;;4.81;84.53
16431;BME280;8325;49.284;7.238;2022-12-07T12:04:59;98806.63;;;4.83;83.95
16431;BME280;8325;49.284;7.238;2022-12-07T12:18:53;98798.16;;;4.81;83.49
16431;BME280;8325;49.284;7.238;2022-12-07T12:27:28;98797.38;;;4.91;82.34
16431;BME280;8325;49.284;7.238;2022-12-07T12:31:41;98797.66;;;4.88;82.85
16431;BME280;8325;49.284;7.238;2022-12-07T12:45:03;98786.19;;;4.80;83.19
16431;BME280;8325;49.284;7.238;2022-12-07T12:53:28;98780.50;;;4.87;83.07
16431;BME280;8325;49.284;7.238;2022-12-07T12:57:40;98773.91;;;4.82;82.83
16431;BME280;8325;49.284;7.238;2022-12-07T13:02:07;98776.09;;;4.77;83.08
16431;BME280;8325;49.284;7.238;2022-12-07T13:10:40;98772.81;;;4.75;82.48
16431;BME280;8325;49.284;7.238;2022-12-07T13:14:57;98767.63;;;4.75;82.26
16431;BME280;8325;49.284;7.238;2022-12-07T13:23:55;98763.97;;;4.78;80.57
16431;BME280;8325;49.284;7.238;2022-12-07T13:28:17;98760.84;;;4.74;82.15
16431;BME280;8325;49.284;7.238;2022-12-07T13:32:30;98751.41;;;4.73;82.15
16431;BME280;8325;49.284;7.238;2022-12-07T13:36:44;98746.50;;;4.70;82.43
16431;BME280;8325;49.284;7.238;2022-12-07T13:41:00;98746.50;;;4.70;82.36
16431;BME280;8325;49.284;7.238;2022-12-07T13:45:41;98751.00;;;4.68;81.96
16431;BME280;8325;49.284;7.238;2022-12-07T13:50:15;98739.69;;;4.69;82.27
16431;BME280;8325;49.284;7.238;2022-12-07T13:54:32;98739.97;;;4.66;81.27
16431;BME280;8325;49.284;7.238;2022-12-07T13:58:44;98742.81;;;4.63;82.25
16431;BME280;8325;49.284;7.238;2022-12-07T14:03:23;98745.50;;;4.61;81.99
16431;BME280;8325;49.284;7.238;2022-12-07T14:07:49;98741.56;;;4.57;81.71
16431;BME280;8325;49.284;7.238;2022-12-07T14:12:05;98740.31;;;4.52;82.33
16431;BME280;8325;49.284;7.238;2022-12-07T14:16:23;98739.75;;;4.48;82.48
16431;BME280;8325;49.284;7.238;2022-12-07T14:20:40;98735.41;;;4.49;82.44
16431;BME280;8325;49.284;7.238;2022-12-07T14:25:00;98726.44;;;4.53;81.65
16431;BME280;8325;49.284;7.238;2022-12-07T14:33:37;98726.97;;;4.47;83.09
16431;BME280;8325;49.284;7.238;2022-12-07T14:37:49;98724.13;;;4.50;82.67
16431;BME280;8325;49.284;7.238;2022-12-07T14:42:01;98718.25;;;4.48;83.16
16431;BME280;8325;49.284;7.238;2022-12-07T14:46:12;98716.22;;;4.51;82.73
16431;BME280;8325;49.284;7.238;2022-12-07T14:50:24;98721.66;;;4.48;82.54
16431;BME280;8325;49.284;7.238;2022-12-07T14:54:36;98712.94;;;4.49;82.33
16431;BME280;8325;49.284;7.238;2022-12-07T14:58:47;98715.25;;;4.52;82.55
16431;BME280;8325;49.284;7.238;2022-12-07T15:02:59;98703.97;;;4.44;82.81
16431;BME280;8325;49.284;7.238;2022-12-07T15:07:21;98708.44;;;4.42;83.15
16431;BME280;8325;49.284;7.238;2022-12-07T15:11:32;98718.75;;;4.32;83.86
16431;BME280;8325;49.284;7.238;2022-12-07T15:15:44;98710.28;;;4.30;83.89
16431;BME280;8325;49.284;7.238;2022-12-07T15:19:56;98716.41;;;4.29;84.13
16431;BME280;8325;49.284;7.238;2022-12-07T15:24:09;98709.59;;;4.28;83.80
16431;BME280;8325;49.284;7.238;2022-12-07T15:28:21;98709.72;;;4.26;83.80
16431;BME280;8325;49.284;7.238;2022-12-07T15:32:32;98711.34;;;4.27;83.46
16431;BME280;8325;49.284;7.238;2022-12-07T15:36:44;98701.81;;;4.28;84.02
16431;BME280;8325;49.284;7.238;2022-12-07T15:40:56;98717.03;;;4.21;84.61
16431;BME280;8325;49.284;7.238;2022-12-07T15:45:08;98705.34;;;4.17;84.93
16431;BME280;8325;49.284;7.238;2022-12-07T15:49:20;98705.06;;;4.20;84.26
16431;BME280;8325;49.284;7.238;2022-12-07T15:53:32;98707.22;;;4.15;85.26
16431;BME280;8325;49.284;7.238;2022-12-07T15:57:43;98699.06;;;4.10;85.39
16431;BME280;8325;49.284;7.238;2022-12-07T16:01:55;98685.19;;;4.11;84.98
16431;BME280;8325;49.284;7.238;2022-12-07T16:06:07;98690.84;;;4.05;85.29
16431;BME280;8325;49.284;7.238;2022-12-07T16:10:18;98677.38;;;4.01;85.82
16431;BME280;8325;49.284;7.238;2022-12-07T16:14:29;98679.25;;;3.99;85.35
16431;BME280;8325;49.284;7.238;2022-12-07T16:18:45;98680.22;;;3.98;85.41
16431;BME280;8325;49.284;7.238;2022-12-07T16:22:56;98672.31;;;4.00;85.10
16431;BME280;8325;49.284;7.238;2022-12-07T16:27:08;98674.91;;;4.00;84.69
16431;BME280;8325;49.284;7.238;2022-12-07T16:31:22;98674.25;;;3.98;84.94
16431;BME280;8325;49.284;7.238;2022-12-07T16:35:38;98671.66;;;3.98;84.99
16431;BME280;8325;49.284;7.238;2022-12-07T16:39:52;98677.44;;;3.90;85.33
16431;BME280;8325;49.284;7.238;2022-12-07T16:44:05;98662.34;;;3.85;85.17
16431;BME280;8325;49.284;7.238;2022-12-07T16:48:17;98662.59;;;3.82;85.24
16431;BME280;8325;49.284;7.238;2022-12-07T16:52:29;98658.50;;;3.80;85.26
16431;BME280;8325;49.284;7.238;2022-12-07T16:56:40;98662.16;;;3.77;85.50
16431;BME280;8325;49.284;7.238;2022-12-07T17:00:52;98660.78;;;3.73;85.65
16431;BME280;8325;49.284;7.238;2022-12-07T17:05:04;98653.84;;;3.74;85.57
16431;BME280;8325;49.284;7.238;2022-12-07T17:09:16;98658.56;;;3.68;85.93
16431;BME280;8325;49.284;7.238;2022-12-07T17:13:31;98656.38;;;3.64;86.79
16431;BME280;8325;49.284;7.238;2022-12-07T17:18:02;98652.84;;;3.65;86.02
16431;BME280;8325;49.284;7.238;2022-12-07T17:22:13;98661.81;;;3.61;86.13
16431;BME280;8325;49.284;7.238;2022-12-07T17:26:26;98651.47;;;3.61;86.85
16431;BME280;8325;49.284;7.238;2022-12-07T17:30:45;98651.72;;;3.58;86.79
16431;BME280;8325;49.284;7.238;2022-12-07T17:34:57;98656.75;;;3.59;86.73
16431;BME280;8325;49.284;7.238;2022-12-07T17:39:10;98644.22;;;3.55;87.06
16431;BME280;8325;49.284;7.238;2022-12-07T17:43:22;98638.91;;;3.56;86.76
16431;BME280;8325;49.284;7.238;2022-12-07T17:47:35;98636.47;;;3.55;86.99
16431;BME280;8325;49.284;7.238;2022-12-07T17:51:48;98644.59;;;3.50;86.96
16431;BME280;8325;49.284;7.238;2022-12-07T17:56:18;98631.06;;;3.58;86.69
16431;BME280;8325;49.284;7.238;2022-12-07T18:00:39;98619.91;;;3.57;86.61
16431;BME280;8325;49.284;7.238;2022-12-07T18:04:52;98625.59;;;3.51;86.91
16431;BME280;8325;49.284;7.238;2022-12-07T18:09:04;98625.00;;;3.47;87.38
16431;BME280;8325;49.284;7.238;2022-12-07T18:13:15;98626.66;;;3.49;87.01
16431;BME280;8325;49.284;7.238;2022-12-07T18:17:46;98627.59;;;3.47;87.18
16431;BME280;8325;49.284;7.238;2022-12-07T18:21:57;98631.13;;;3.46;86.88
16431;BME280;8325;49.284;7.238;2022-12-07T18:26:09;98626.09;;;3.45;87.07
16431;BME280;8325;49.284;7.238;2022-12-07T18:30:21;98621.25;;;3.52;87.34
16431;BME280;8325;49.284;7.238;2022-12-07T18:34:53;98615.50;;;3.48;87.20
16431;BME280;8325;49.284;7.238;2022-12-07T18:39:05;98620.94;;;3.45;86.89
16431;BME280;8325;49.284;7.238;2022-12-07T18:43:17;98616.84;;;3.42;87.40
16431;BME280;8325;49.284;7.238;2022-12-07T18:47:29;98611.66;;;3.42;87.29
16431;BME280;8325;49.284;7.238;2022-12-07T18:51:41;98609.94;;;3.53;86.95
16431;BME280;8325;49.284;7.238;2022-12-07T18:56:08;98605.00;;;3.40;87.51
16431;BME280;8325;49.284;7.238;2022-12-07T19:00:20;98605.69;;;3.42;87.09
16431;BME280;8325;49.284;7.238;2022-12-07T19:04:33;98609.84;;;3.33;87.96
16431;BME280;8325;49.284;7.238;2022-12-07T19:08:45;98602.78;;;3.35;87.50
16431;BME280;8325;49.284;7.238;2022-12-07T19:12:56;98601.66;;;3.28;88.19
16431;BME280;8325;49.284;7.238;2022-12-07T19:17:11;98593.47;;;3.23;88.40
16431;BME280;8325;49.284;7.238;2022-12-07T19:21:23;98596.53;;;3.17;88.44
16431;BME280;8325;49.284;7.238;2022-12-07T19:25:34;98596.28;;;3.20;87.99
16431;BME280;8325;49.284;7.238;2022-12-07T19:29:47;98598.44;;;3.15;88.57
16431;BME280;8325;49.284;7.238;2022-12-07T19:33:59;98589.50;;;3.19;88.04
16431;BME280;8325;49.284;7.238;2022-12-07T19:38:10;98590.72;;;3.15;88.57
16431;BME280;8325;49.284;7.238;2022-12-07T19:42:22;98595.56;;;3.08;88.90
16431;BME280;8325;49.284;7.238;2022-12-07T19:46:33;98592.38;;;3.05;89.49
16431;BME280;8325;49.284;7.238;2022-12-07T19:50:45;98580.75;;;3.10;88.82
16431;BME280;8325;49.284;7.238;2022-12-07T19:54:57;98583.22;;;3.12;89.33
16431;BME280;8325;49.284;7.238;2022-12-07T19:59:09;98578.56;;;3.06;89.09
16431;BME280;8325;49.284;7.238;2022-12-07T20:03:21;98576.66;;;3.08;89.29
16431;BME280;8325;49.284;7.238;2022-12-07T20:07:32;98578.56;;;3.06;89.48
16431;BME280;8325;49.284;7.238;2022-12-07T20:11:49;98586.56;;;3.03;89.86
16431;BME280;8325;49.284;7.238;2022-12-07T20:16:20;98578.00;;;3.02;89.56
16431;BME280;8325;49.284;7.238;2022-12-07T20:20:31;98579.38;;;3.06;89.93
16431;BME280;8325;49.284;7.238;2022-12-07T20:24:43;98583.25;;;3.00;89.96
16431;BME280;8325;49.284;7.238;2022-12-07T20:28:54;98581.50;;;3.01;90.13
16431;BME280;8325;49.284;7.238;2022-12-07T20:33:06;98568.91;;;3.08;89.64
16431;BME280;8325;49.284;7.238;2022-12-07T20:37:18;98575.41;;;3.02;89.97
16431;BME280;8325;49.284;7.238;2022-12-07T20:41:30;98574.78;;;3.10;89.98
16431;BME280;8325;49.284;7.238;2022-12-07T20:46:00;98576.72;;;2.96;89.80
16431;BME280;8325;49.284;7.238;2022-12-07T20:50:12;98570.38;;;3.00;89.81
16431;BME280;8325;49.284;7.238;2022-12-07T20:54:23;98573.91;;;2.99;89.96
16431;BME280;8325;49.284;7.238;2022-12-07T20:58:35;98575.22;;;2.94;89.87
16431;BME280;8325;49.284;7.238;2022-12-07T21:02:46;98567.31;;;2.95;90.27
16431;BME280;8325;49.284;7.238;2022-12-07T21:06:58;98557.72;;;2.97;90.47
16431;BME280;8325;49.284;7.238;2022-12-07T21:11:10;98552.69;;;2.96;90.86
16431;BME280;8325;49.284;7.238;2022-12-07T21:15:22;98549.22;;;3.07;89.42
16431;BME280;8325;49.284;7.238;2022-12-07T21:19:33;98544.44;;;3.02;90.09
16431;BME280;8325;49.284;7.238;2022-12-07T21:23:47;98534.50;;;2.97;90.28
16431;BME280;8325;49.284;7.238;2022-12-07T21:27:59;98533.78;;;2.95;90.44
16431;BME280;8325;49.284;7.238;2022-12-07T21:32:11;98540.22;;;3.01;90.12
16431;BME280;8325;49.284;7.238;2022-12-07T21:36:24;98530.84;;;3.00;90.06
16431;BME280;8325;49.284;7.238;2022-12-07T21:40:37;98533.69;;;2.97;90.28
16431;BME280;8325;49.284;7.238;2022-12-07T21:44:48;98527.69;;;2.96;90.80
16431;BME280;8325;49.284;7.238;2022-12-07T21:49:12;98527.69;;;2.96;90.71
16431;BME280;8325;49.284;7.238;2022-12-07T22:11:09;98505.28;;;2.97;90.40
16431;BME280;8325;49.284;7.238;2022-12-07T22:15:22;98505.84;;;3.00;90.31
16431;BME280;8325;49.284;7.238;2022-12-07T22:19:44;98506.66;;;3.01;89.89
16431;BME280;8325;49.284;7.238;2022-12-07T22:23:56;98514.28;;;3.03;89.96
16431;BME280;8325;49.284;7.238;2022-12-07T22:28:07;98505.16;;;2.98;89.42
